Mc Connell Air Force Base
KIAB : now visible

Airfield :











YOU CAN JOIN US ON...

 
LOGIN :

Register | Disclaimer

   EN    FR    IT 

 









Legend :    VFR   Marginal VFR   IFR   Intensive IFR   Very Intensive IFR
Visi :
Ceiling :
>= 8 km
>= 3000ft
5 to 8 km
1000 to 3000 ft
1500m to 5 km
500 to 1000 ft
800 to 1500m
200 to 500 ft
< 800m
< 200 ft
Symbols :   Thunderstorms  Fog  Heavy snow  Heavy precipitations  Wind > 20 kt






- Airport Elevation : 1371 ft
- IATA code : IAB


KIAB - Mc Connell Air Force Base

CURRENT METAR :
  • 130356Z AUTO 13009KT 10SM FEW100 SCT120 27/21 A2995 RMK AO2 SLP132 T02650208 TSNO $

EXPIRED METARs :
  • 130256Z AUTO 14010KT 10SM CLR 27/20 A2994 RMK AO2 SLP129 T02700203 50007 TSNO $
  • 130156Z AUTO 14011KT 10SM CLR 28/21 A2992 RMK AO2 SLP121 T02780206 $

TAF AMD TAF KIAB
Valid from the 13 at 04:00 until the 14 at 08:00 UTC


130400Z 1304/1408 13009KT 8000 -SHRA VCTS SCT038CB QNH2992INS
TEMPO 1304/1309 14015G25KT 6000 TSRA BKN020CB
BECMG 1314/1315 13015G25KT 9999 NSW BKN008 QNH2995INS
BECMG 1318/1319 13012KT 9999 BKN150 QNH2990INS
BECMG 1402/1403 VRB06KT 9999 FEW020 QNH2991INS TX32/1321Z TN22/1311Z
KZKC FIR / North America



MET'MAP, your aeronautical weather chart ! - Copyright ORBIFLY December 2007 - Disclaimer

ORBIFLY MET'MAP TEAM :

Programming & Development : Alexandra Zaïnal
Concept & original design : Baudouin d'Aumeries
Assistance for programming : Marc-Olivier Méhu
Technical & hardware support : Manuel Goepfert

Contact : metmap@orbifly.com




SOURCES & CREDITS :

   NOAA       Earth
Advisory